Time;durP1;ratioP1;P1;durP2;ratioP2;P2;SDS_P1;SDS_P2;PMS_P1;PMS_P2;Temp;Humidity;BMP_temperature;BMP_pressure;BME280_temperature;BME280_humidity;BME280_pressure;Samples;Min_cycle;Max_cycle;Signal;HPM_P1;HPM_P2
2020/12/18 00:02:11;;;;;;;24.40;10.88;;;;;;;-0.03;96.21;100649.59;1815117;79;21828;-79
2020/12/18 00:04:40;;;;;;;27.65;12.07;;;;;;;-0.03;96.25;100647.73;1814295;79;21060;-80
2020/12/18 00:07:09;;;;;;;23.18;11.45;;;;;;;-0.02;96.32;100645.85;1814546;79;20918;-85
2020/12/18 00:09:37;;;;;;;25.20;11.90;;;;;;;-0.01;96.36;100655.61;1814659;79;21072;-80
2020/12/18 00:12:04;;;;;;;23.98;11.68;;;;;;;-0.02;96.36;100653.42;1814524;79;20931;-82
2020/12/18 00:14:32;;;;;;;21.10;9.30;;;;;;;-0.03;96.45;100653.64;1814658;79;21369;-79
2020/12/18 00:17:00;;;;;;;22.07;10.68;;;;;;;-0.03;96.50;100646.90;1814506;79;21041;-80
2020/12/18 00:19:28;;;;;;;21.07;10.08;;;;;;;-0.07;96.46;100645.16;1814551;79;20875;-81
2020/12/18 00:21:58;;;;;;;22.07;10.68;;;;;;;-0.07;96.54;100648.38;1814515;79;21703;-77
2020/12/18 00:24:25;;;;;;;23.85;11.88;;;;;;;-0.09;96.58;100642.38;1814603;79;20879;-77
2020/12/18 00:26:53;;;;;;;24.43;11.10;;;;;;;-0.07;96.73;100642.98;1814545;79;21635;-78
2020/12/18 00:29:21;;;;;;;22.42;10.85;;;;;;;-0.05;96.86;100643.59;1814547;79;21611;-78
2020/12/18 00:31:49;;;;;;;22.17;10.95;;;;;;;-0.05;96.90;100645.77;1814576;79;20926;-80
2020/12/18 00:34:16;;;;;;;24.75;12.07;;;;;;;-0.05;96.87;100640.89;1814461;79;20911;-77
2020/12/18 00:36:52;;;;;;;25.57;12.53;;;;;;;-0.04;96.99;100640.67;1814582;79;21014;-83
2020/12/18 00:39:19;;;;;;;24.02;11.85;;;;;;;-0.02;97.07;100637.23;1814593;79;21357;-76
2020/12/18 00:41:52;;;;;;;21.20;10.05;;;;;;;0.02;97.13;100634.89;1814459;79;20935;-77
2020/12/18 00:44:21;;;;;;;22.40;10.25;;;;;;;0.03;97.05;100634.36;1814624;79;21584;-77
2020/12/18 00:46:49;;;;;;;21.20;10.43;;;;;;;0.00;96.93;100632.96;1814568;79;20935;-84
2020/12/18 00:49:16;;;;;;;18.62;8.95;;;;;;;0.00;96.97;100637.02;1814582;79;20903;-83
2020/12/18 00:51:44;;;;;;;20.32;9.98;;;;;;;-0.03;96.92;100634.23;1814558;79;23595;-84
2020/12/18 00:54:12;;;;;;;18.65;9.38;;;;;;;-0.06;96.86;100633.84;1814309;78;20986;-82
2020/12/18 00:56:45;;;;;;;21.27;9.98;;;;;;;-0.08;96.90;100626.48;1814557;79;21496;-82
2020/12/18 00:59:12;;;;;;;17.48;9.03;;;;;;;-0.11;97.00;100622.35;1814569;79;20974;-83
2020/12/18 01:01:40;;;;;;;17.65;9.00;;;;;;;-0.13;97.01;100619.56;1814560;79;21560;-82
2020/12/18 01:04:08;;;;;;;14.47;7.62;;;;;;;-0.13;97.07;100623.61;1814542;79;23594;-81
2020/12/18 01:06:36;;;;;;;21.60;8.98;;;;;;;-0.16;97.10;100615.44;1814469;79;20926;-80
2020/12/18 01:09:04;;;;;;;14.28;8.33;;;;;;;-0.14;97.16;100615.22;1814539;79;21552;-78
2020/12/18 01:11:38;;;;;;;20.17;9.35;;;;;;;-0.16;97.16;100605.98;1814487;79;21144;-77
2020/12/18 01:14:08;;;;;;;21.42;10.55;;;;;;;-0.16;97.22;100603.29;1814489;79;20935;-80
2020/12/18 01:16:37;;;;;;;25.32;11.30;;;;;;;-0.18;97.27;100602.69;1814498;79;22334;-81
2020/12/18 01:19:05;;;;;;;21.30;11.30;;;;;;;-0.16;97.37;100605.16;1814427;79;21061;-83
2020/12/18 01:21:36;;;;;;;20.57;10.32;;;;;;;-0.13;97.41;100602.84;1814448;79;21088;-81
2020/12/18 01:24:04;;;;;;;15.25;8.73;;;;;;;-0.13;97.42;100602.02;1814479;79;21835;-75
2020/12/18 01:26:33;;;;;;;17.45;8.95;;;;;;;-0.14;97.46;100600.37;1814499;79;20966;-76
2020/12/18 01:29:00;;;;;;;18.30;8.35;;;;;;;-0.15;97.42;100598.20;1814479;79;21564;-76
2020/12/18 01:31:28;;;;;;;18.75;9.70;;;;;;;-0.16;97.38;100593.02;1814457;79;20950;-76
2020/12/18 01:33:57;;;;;;;20.45;9.45;;;;;;;-0.16;97.41;100598.41;1787299;79;21457;-75
2020/12/18 01:36:26;;;;;;;20.15;9.90;;;;;;;-0.15;97.43;100593.32;1814445;79;20950;-74
2020/12/18 01:38:56;;;;;;;16.25;8.58;;;;;;;-0.15;97.40;100597.37;1814350;79;21504;-75
2020/12/18 01:41:24;;;;;;;19.10;9.83;;;;;;;-0.14;97.40;100599.84;1814516;79;21408;-75
2020/12/18 01:43:52;;;;;;;20.35;9.93;;;;;;;-0.13;97.39;100600.16;1814423;79;20998;-78
2020/12/18 01:46:20;;;;;;;22.15;10.58;;;;;;;-0.13;97.37;100597.45;1814434;79;21018;-75
2020/12/18 01:48:50;;;;;;;32.58;15.58;;;;;;;-0.12;97.41;100599.10;1814027;79;20935;-76
2020/12/18 01:51:17;;;;;;;29.00;14.18;;;;;;;-0.09;97.50;100594.62;1814504;79;20935;-77
2020/12/18 01:53:47;;;;;;;24.95;12.73;;;;;;;-0.04;97.55;100598.00;1788758;79;22266;-77
2020/12/18 01:56:19;;;;;;;;;;;;;;;-0.02;97.47;100589.98;1818862;79;20939;-76
2020/12/18 01:58:49;;;;;;;21.97;10.58;;;;;;;-0.01;97.34;100590.29;1790620;79;20113;-76
2020/12/18 02:01:18;;;;;;;17.65;9.00;;;;;;;-0.03;97.28;100592.39;1789977;79;20899;-76
2020/12/18 02:04:00;;;;;;;20.72;9.75;;;;;;;-0.05;97.22;100590.43;1814691;79;20919;-77
2020/12/18 02:06:30;;;;;;;18.77;8.93;;;;;;;-0.07;97.13;100589.82;1790339;79;21377;-78
2020/12/18 02:09:14;;;;;;;17.75;8.45;;;;;;;-0.06;97.20;100579.85;1890167;75;22786;-78
2020/12/18 02:11:43;;;;;;;17.75;8.83;;;;;;;-0.09;97.30;100586.52;1860762;77;20876;-77
2020/12/18 02:14:13;;;;;;;24.90;11.68;;;;;;;-0.07;97.32;100580.38;1828770;77;22239;-79
2020/12/18 02:16:41;;;;;;;22.60;10.98;;;;;;;-0.07;97.25;100584.95;1861018;77;21473;-78
2020/12/18 02:19:11;;;;;;;22.22;11.28;;;;;;;-0.09;97.23;100581.12;1860891;77;20927;-78
2020/12/18 02:21:39;;;;;;;21.85;11.40;;;;;;;-0.10;97.18;100584.04;1860993;77;21580;-77
2020/12/18 02:24:09;;;;;;;26.57;12.80;;;;;;;-0.13;97.25;100587.17;1860946;77;20967;-79
2020/12/18 02:26:37;;;;;;;28.27;13.32;;;;;;;-0.12;97.42;100580.21;1828308;77;21367;-79
2020/12/18 02:29:06;;;;;;;29.10;12.68;;;;;;;-0.09;97.45;100580.30;1860969;77;21002;-78
2020/12/18 02:31:35;;;;;;;25.95;12.13;;;;;;;-0.10;97.37;100582.69;1859506;77;21435;-76
2020/12/18 02:34:26;;;;;;;24.02;12.73;;;;;;;-0.08;97.40;100571.97;1867271;75;22681;-76
2020/12/18 02:36:55;;;;;;;29.98;15.10;;;;;;;-0.11;97.33;100575.64;1808721;79;21059;-76
2020/12/18 02:39:23;;;;;;;30.40;14.55;;;;;;;-0.13;97.33;100575.03;1779399;79;21193;-76
2020/12/18 02:41:53;;;;;;;27.25;13.45;;;;;;;-0.12;97.43;100580.73;1807529;79;21529;-78
2020/12/18 02:44:37;;;;;;;28.62;14.30;;;;;;;-0.07;97.44;100576.33;1873731;76;22715;-77
2020/12/18 02:47:07;;;;;;;31.02;15.40;;;;;;;-0.12;97.40;100576.16;1839334;78;20921;-78
2020/12/18 02:49:35;;;;;;;30.32;14.03;;;;;;;-0.14;97.34;100581.48;1841720;78;21467;-77
2020/12/18 02:52:04;;;;;;;35.20;15.15;;;;;;;-0.15;97.42;100576.60;1838917;78;20952;-78
2020/12/18 02:54:40;;;;;;;30.88;15.18;;;;;;;-0.16;97.45;100580.34;1839056;77;21000;-79
2020/12/18 02:57:26;;;;;;;31.48;14.68;;;;;;;-0.16;97.51;100576.30;1841709;78;21665;-79
2020/12/18 03:00:05;;;;;;;33.38;14.90;;;;;;;-0.15;97.49;100581.17;1873704;75;22710;-80
2020/12/18 03:02:36;;;;;;;30.62;15.48;;;;;;;-0.20;97.54;100589.93;1841731;78;20924;-79
2020/12/18 03:05:07;;;;;;;39.10;16.30;;;;;;;-0.19;97.65;100588.88;1841783;78;21475;-78
2020/12/18 03:07:46;;;;;;;28.85;15.05;;;;;;;-0.19;97.70;100590.23;1839995;77;21027;-82
2020/12/18 03:10:13;;;;;;;34.60;15.10;;;;;;;-0.18;97.73;100590.53;1841701;78;20920;-77
2020/12/18 03:12:42;;;;;;;33.10;14.45;;;;;;;-0.22;97.64;100592.02;1841796;78;20913;-76
2020/12/18 03:15:09;;;;;;;34.70;15.93;;;;;;;-0.26;97.62;100594.03;1841792;78;20960;-76
2020/12/18 03:17:44;;;;;;;35.58;15.68;;;;;;;-0.29;97.76;100591.25;1779223;78;22347;-77
2020/12/18 03:20:14;;;;;;;38.02;16.65;;;;;;;-0.28;97.91;100589.37;1841600;77;21047;-75
2020/12/18 03:23:01;;;;;;;35.55;15.35;;;;;;;-0.29;97.98;100585.84;1841703;78;20921;-77
2020/12/18 03:25:39;;;;;;;33.45;16.00;;;;;;;-0.29;98.04;100580.97;1836120;78;21553;-78
2020/12/18 03:28:09;;;;;;;32.85;15.68;;;;;;;-0.30;98.11;100581.50;1840526;78;20999;-76
2020/12/18 03:30:38;;;;;;;34.45;15.95;;;;;;;-0.31;98.16;100582.55;1841714;78;21201;-76
2020/12/18 03:33:06;;;;;;;33.48;15.80;;;;;;;-0.32;98.17;100574.14;1841769;78;20885;-77
2020/12/18 03:35:34;;;;;;;35.30;16.45;;;;;;;-0.29;98.44;100575.58;1817716;77;21043;-76
2020/12/18 03:38:02;;;;;;;39.83;15.32;;;;;;;-0.24;98.63;100577.09;1808531;78;20979;-77
2020/12/18 03:40:31;;;;;;;36.00;14.03;;;;;;;-0.25;98.55;100573.57;1808740;79;21463;-76
2020/12/18 03:43:03;;;;;;;39.90;16.52;;;;;;;-0.24;98.52;100576.57;1806196;79;21197;-76
2020/12/18 03:45:33;;;;;;;34.83;15.75;;;;;;;-0.24;98.45;100578.45;1806942;79;20968;-77
2020/12/18 03:48:17;;;;;;;35.63;16.48;;;;;;;-0.22;98.43;100578.53;1775393;79;22733;-76
2020/12/18 03:50:53;;;;;;;39.05;16.40;;;;;;;-0.28;98.39;100575.36;1749092;82;21069;-79
2020/12/18 03:53:22;;;;;;;35.23;15.65;;;;;;;-0.29;98.40;100573.70;1749297;82;22269;-78
2020/12/18 03:55:51;;;;;;;31.30;14.18;;;;;;;-0.30;98.38;100575.27;1748132;82;20958;-79
2020/12/18 03:58:39;;;;;;;31.80;15.00;;;;;;;-0.31;98.36;100576.32;1728147;82;20950;-76
2020/12/18 04:01:25;;;;;;;34.92;14.30;;;;;;;-0.34;98.32;100580.28;1734848;82;21006;-75
2020/12/18 04:03:53;;;;;;;30.02;13.70;;;;;;;-0.35;98.38;100579.45;1749714;81;21635;-76
2020/12/18 04:06:21;;;;;;;31.87;14.83;;;;;;;-0.34;98.39;100577.06;1749665;82;21158;-75
2020/12/18 04:08:49;;;;;;;29.63;13.18;;;;;;;-0.32;98.45;100577.36;1749743;82;21520;-76
2020/12/18 04:11:19;;;;;;;30.37;13.95;;;;;;;-0.31;98.43;100577.15;1749263;82;21498;-77
2020/12/18 04:14:05;;;;;;;31.70;16.90;;;;;;;-0.28;98.34;100575.88;1871095;76;27761;-74
2020/12/18 04:16:41;;;;;;;28.10;13.50;;;;;;;-0.28;98.26;100573.19;1829572;77;20920;-77
2020/12/18 04:19:09;;;;;;;33.83;15.05;;;;;;;-0.25;98.12;100574.92;1849961;77;21197;-76
2020/12/18 04:21:36;;;;;;;34.30;15.68;;;;;;;-0.23;98.07;100573.34;1849950;77;20902;-77
2020/12/18 04:24:11;;;;;;;31.15;14.70;;;;;;;-0.25;98.00;100570.88;1848205;77;20979;-77
2020/12/18 04:26:40;;;;;;;32.90;13.98;;;;;;;-0.27;98.01;100570.79;1849931;77;21034;-75
2020/12/18 04:29:09;;;;;;;37.53;15.53;;;;;;;-0.29;98.04;100572.87;1849986;77;20885;-77
2020/12/18 04:31:37;;;;;;;33.10;14.00;;;;;;;-0.32;98.05;100572.80;1849986;77;21397;-77
2020/12/18 04:34:04;;;;;;;31.62;14.78;;;;;;;-0.32;98.21;100570.09;1849676;77;21901;-76
2020/12/18 04:36:42;;;;;;;32.63;14.65;;;;;;;-0.29;98.25;100568.31;1799481;78;22744;-78
2020/12/18 04:39:10;;;;;;;36.80;15.00;;;;;;;-0.35;98.29;100570.02;1774051;81;20926;-78
2020/12/18 04:41:41;;;;;;;39.40;16.73;;;;;;;-0.37;98.32;100569.41;1774135;81;22177;-79
2020/12/18 04:44:11;;;;;;;33.33;14.93;;;;;;;-0.39;98.37;100574.19;1773790;80;20910;-77
2020/12/18 04:46:42;;;;;;;37.73;16.12;;;;;;;-0.39;98.42;100574.72;1772883;81;21456;-76
2020/12/18 04:49:11;;;;;;;38.02;16.82;;;;;;;-0.38;98.51;100579.89;1742264;81;20937;-77
2020/12/18 04:51:43;;;;;;;36.68;17.10;;;;;;;-0.38;98.53;100580.42;1773801;81;20942;-78
2020/12/18 04:54:12;;;;;;;35.28;16.50;;;;;;;-0.36;98.59;100576.45;1773000;81;21372;-78
2020/12/18 04:56:42;;;;;;;37.42;16.93;;;;;;;-0.35;98.55;100588.08;1772217;81;20934;-78
2020/12/18 04:59:11;;;;;;;34.40;16.10;;;;;;;-0.36;98.52;100587.77;1742488;81;20934;-78
2020/12/18 05:01:43;;;;;;;34.60;17.77;;;;;;;-0.36;98.52;100585.89;1742259;81;21475;-78
2020/12/18 05:04:12;;;;;;;41.08;18.12;;;;;;;-0.34;98.62;100587.03;1774014;81;20922;-78
2020/12/18 05:06:42;;;;;;;32.33;14.73;;;;;;;-0.34;98.55;100593.77;1742402;81;21159;-80
2020/12/18 05:09:11;;;;;;;34.48;15.78;;;;;;;-0.34;98.60;100593.25;1773962;81;20966;-78
2020/12/18 05:11:38;;;;;;;35.20;16.30;;;;;;;-0.34;98.54;100589.73;1774025;81;21004;-80
2020/12/18 05:14:08;;;;;;;34.65;15.80;;;;;;;-0.34;98.55;100591.91;1773831;81;21583;-79
2020/12/18 05:16:37;;;;;;;33.45;16.25;;;;;;;-0.34;98.51;100591.91;1772772;81;20969;-76
2020/12/18 05:19:18;;;;;;;37.42;16.85;;;;;;;-0.30;98.44;100586.89;1873714;75;22726;-77
2020/12/18 05:22:05;;;;;;;35.20;14.95;;;;;;;-0.34;98.38;100595.12;1772077;80;20992;-76
2020/12/18 05:24:40;;;;;;;31.60;15.35;;;;;;;-0.30;98.36;100594.16;1873767;76;21826;-77
2020/12/18 05:27:10;;;;;;;30.72;14.73;;;;;;;-0.35;98.32;100600.22;1841660;78;20917;-76
2020/12/18 05:29:39;;;;;;;27.58;12.98;;;;;;;-0.35;98.36;100605.61;1812307;78;20896;-76
2020/12/18 05:32:14;;;;;;;33.95;16.12;;;;;;;-0.32;98.39;100601.65;1789788;78;20976;-77
2020/12/18 05:34:46;;;;;;;41.48;17.55;;;;;;;-0.30;98.36;100604.95;1827264;77;21091;-79
2020/12/18 05:37:43;;;;;;;25.17;13.25;;;;;;;-0.28;98.27;100604.22;1873741;76;22782;-79
2020/12/18 05:40:15;;;;;;;27.15;13.15;;;;;;;-0.34;98.16;100614.01;1787231;78;21114;-80
2020/12/18 05:42:48;;;;;;;28.92;14.18;;;;;;;-0.37;98.08;100617.14;1838189;78;21330;-81
2020/12/18 05:45:18;;;;;;;28.32;13.58;;;;;;;-0.37;98.16;100621.19;1841020;78;21566;-80
2020/12/18 05:48:05;;;;;;;35.68;19.07;;;;;;;-0.32;98.19;100612.44;1873780;75;23182;-79
2020/12/18 05:50:37;;;;;;;36.28;19.92;;;;;;;-0.38;98.11;100619.02;1838965;78;20932;-79
2020/12/18 05:53:10;;;;;;;31.10;17.20;;;;;;;-0.39;97.97;100618.70;1811678;78;21326;-79
2020/12/18 05:55:43;;;;;;;18.12;9.05;;;;;;;-0.42;97.91;100611.05;1840699;78;21230;-79
2020/12/18 05:58:13;;;;;;;16.97;8.73;;;;;;;-0.43;97.84;100613.97;1839813;78;21055;-79
2020/12/18 06:00:42;;;;;;;16.70;7.70;;;;;;;-0.45;97.35;100619.58;1839979;78;20982;-81
2020/12/18 06:03:32;;;;;;;14.93;7.92;;;;;;;-0.46;97.17;100622.49;1734749;82;20905;-81
2020/12/18 06:06:00;;;;;;;19.07;10.75;;;;;;;-0.45;96.87;100620.09;1748223;80;21373;-81
2020/12/18 06:08:29;;;;;;;17.52;9.55;;;;;;;-0.43;96.77;100622.06;1752537;80;21551;-82
2020/12/18 06:10:59;;;;;;;22.42;12.55;;;;;;;-0.39;96.64;100626.80;1782320;80;20985;-83
2020/12/18 06:13:29;;;;;;;21.33;11.63;;;;;;;-0.36;96.38;100622.84;1780574;80;20950;-83
2020/12/18 06:16:00;;;;;;;26.87;12.10;;;;;;;-0.34;96.25;100632.38;1726895;80;21115;-82
2020/12/18 06:18:29;;;;;;;22.45;11.57;;;;;;;-0.34;96.11;100626.98;1779087;80;22522;-80
2020/12/18 06:20:56;;;;;;;21.70;11.48;;;;;;;-0.34;95.99;100626.98;1713109;80;21828;-79
2020/12/18 06:23:26;;;;;;;20.68;10.85;;;;;;;-0.34;95.98;100634.25;1701087;80;20933;-82
2020/12/18 06:26:10;;;;;;;18.77;10.55;;;;;;;-0.31;95.99;100626.23;1873808;76;22725;-84
2020/12/18 06:28:39;;;;;;;18.73;10.10;;;;;;;-0.36;95.97;100632.28;1837149;78;20921;-82
2020/12/18 06:31:26;;;;;;;19.65;10.43;;;;;;;-0.36;96.05;100633.11;1841464;78;22244;-83
2020/12/18 06:34:05;;;;;;;21.33;10.78;;;;;;;-0.35;95.98;100630.72;1732203;82;20992;-86
2020/12/18 06:36:57;;;;;;;17.23;9.80;;;;;;;-0.34;95.93;100632.89;1806509;78;21491;-80
2020/12/18 06:39:44;;;;;;;24.95;15.90;;;;;;;-0.28;95.85;100629.33;1888710;76;22439;-75
2020/12/18 06:42:30;;;;;;;28.12;16.55;;;;;;;-0.34;95.68;100626.98;1775462;80;20938;-75
2020/12/18 06:45:16;;;;;;;22.22;12.82;;;;;;;-0.34;95.50;100625.62;1774079;81;21388;-73
2020/12/18 06:47:55;;;;;;;18.62;10.82;;;;;;;-0.32;95.52;100624.06;1771184;80;21489;-75
2020/12/18 06:50:43;;;;;;;19.07;12.18;;;;;;;-0.29;95.45;100623.63;1769500;81;21014;-69
2020/12/18 06:53:28;;;;;;;22.20;13.35;;;;;;;-0.29;95.18;100626.84;1775422;80;20942;-72
2020/12/18 06:55:58;;;;;;;32.65;19.82;;;;;;;-0.29;95.01;100617.41;1771962;81;20951;-73
2020/12/18 06:58:34;;;;;;;39.13;25.43;;;;;;;-0.30;94.94;100619.80;1775318;80;21200;-73
2020/12/18 07:01:02;;;;;;;53.92;33.00;;;;;;;-0.34;94.56;100618.05;1773966;81;21060;-74
2020/12/18 07:03:41;;;;;;;42.70;23.83;;;;;;;-0.36;94.54;100624.19;1775272;80;20934;-72
2020/12/18 07:06:12;;;;;;;32.90;18.02;;;;;;;-0.35;94.61;100625.84;1817033;77;21451;-72
2020/12/18 07:08:41;;;;;;;37.40;17.32;;;;;;;-0.38;94.39;100622.23;1816637;79;21019;-71
2020/12/18 07:11:12;;;;;;;23.83;12.98;;;;;;;-0.39;94.38;100625.98;1816628;79;21019;-70
2020/12/18 07:13:47;;;;;;;24.20;12.68;;;;;;;-0.41;94.28;100625.36;1816704;79;28481;-73
2020/12/18 07:16:12;;;;;;;;;;;;;;;-0.43;94.25;100627.45;1821483;77;21002;-73
2020/12/18 07:18:42;;;;;;;20.72;10.75;;;;;;;-0.44;94.38;100631.20;1826147;77;20426;-74
2020/12/18 07:21:13;;;;;;;25.17;14.07;;;;;;;-0.45;94.45;100626.33;1822138;77;21148;-74
2020/12/18 07:23:47;;;;;;;67.32;34.43;;;;;;;-0.47;94.50;100627.58;1816671;79;21174;-71
2020/12/18 07:26:17;;;;;;;73.80;39.10;;;;;;;-0.49;94.74;100631.02;1837233;77;21018;-71
2020/12/18 07:28:44;;;;;;;51.48;26.95;;;;;;;-0.53;94.82;100627.10;1822083;78;20966;-73
2020/12/18 07:31:24;;;;;;;44.33;23.62;;;;;;;-0.58;94.93;100627.78;1822058;78;20934;-70
2020/12/18 07:33:59;;;;;;;36.63;17.45;;;;;;;-0.59;95.20;100626.65;1822134;77;21551;-72
2020/12/18 07:36:30;;;;;;;37.23;17.60;;;;;;;-0.58;95.43;100625.61;1789703;80;21363;-70
2020/12/18 07:38:58;;;;;;;95.60;56.35;;;;;;;-0.57;95.63;100621.83;1789503;80;21477;-69
2020/12/18 07:41:29;;;;;;;82.70;50.88;;;;;;;-0.59;95.74;100626.13;1789734;80;20923;-71
2020/12/18 07:44:08;;;;;;;110.10;67.78;;;;;;;-0.60;95.90;100619.59;1789781;80;21493;-72
2020/12/18 07:46:38;;;;;;;101.92;62.67;;;;;;;-0.61;95.98;100626.04;1789764;80;20942;-71
2020/12/18 07:49:10;;;;;;;65.65;38.73;;;;;;;-0.61;96.15;100624.17;1789591;80;21195;-72
2020/12/18 07:51:38;;;;;;;72.58;43.00;;;;;;;-0.60;96.29;100632.56;1789231;80;20932;-71
2020/12/18 07:54:05;;;;;;;51.02;29.92;;;;;;;-0.56;96.43;100635.62;1789131;80;20879;-72
2020/12/18 07:56:33;;;;;;;43.10;25.50;;;;;;;-0.50;96.58;100642.85;1789326;79;21199;-71
2020/12/18 07:59:07;;;;;;;29.18;17.87;;;;;;;-0.50;96.42;100637.45;1787482;79;21144;-71
2020/12/18 08:01:36;;;;;;;34.23;19.45;;;;;;;-0.56;96.15;100630.23;1805785;79;21195;-72
2020/12/18 08:04:11;;;;;;;37.80;20.25;;;;;;;-0.58;96.32;100637.74;1814926;79;21631;-71
2020/12/18 08:06:42;;;;;;;24.57;12.98;;;;;;;-0.59;96.55;100630.17;1788288;79;21593;-71
2020/12/18 08:09:16;;;;;;;32.40;14.55;;;;;;;-0.60;96.52;100635.78;1810764;79;20918;-72
2020/12/18 08:11:48;;;;;;;47.98;26.20;;;;;;;-0.63;96.55;100633.52;1815886;78;21031;-71
2020/12/18 08:14:15;;;;;;;35.70;19.17;;;;;;;-0.63;96.71;100636.21;1816011;78;21368;-74
2020/12/18 08:16:43;;;;;;;97.65;55.12;;;;;;;-0.63;96.81;100638.39;1815918;79;20993;-72
2020/12/18 08:19:12;;;;;;;82.82;47.17;;;;;;;-0.65;96.90;100640.47;1815891;79;21028;-75
2020/12/18 08:24:31;;;;;;;97.75;59.35;;;;;;;-0.60;97.11;100631.73;1890084;76;23266;-72
2020/12/18 08:27:08;;;;;;;176.78;103.45;;;;;;;-0.62;97.18;100633.82;1850552;76;20904;-71
2020/12/18 08:29:38;;;;;;;94.30;54.93;;;;;;;-0.56;97.35;100634.28;1842183;77;20919;-74
2020/12/18 08:32:07;;;;;;;131.18;73.47;;;;;;;-0.49;97.46;100639.11;1827237;78;21010;-73
2020/12/18 08:34:34;;;;;;;151.45;84.50;;;;;;;-0.44;97.46;100629.84;1827213;78;21570;-74
2020/12/18 08:37:03;;;;;;;96.00;53.17;;;;;;;-0.40;97.38;100633.24;1827414;78;21445;-76
2020/12/18 08:39:34;;;;;;;64.85;38.88;;;;;;;-0.34;97.38;100627.50;1827315;78;20918;-72
2020/12/18 08:42:03;;;;;;;36.75;21.80;;;;;;;-0.32;97.08;100628.62;1827553;78;22243;-88
2020/12/18 08:44:38;;;;;;;44.58;24.92;;;;;;;-0.33;97.06;100625.11;1827298;77;20919;-76
2020/12/18 08:47:27;;;;;;;44.35;24.50;;;;;;;-0.31;97.03;100622.19;1827319;78;20923;-75
2020/12/18 08:49:56;;;;;;;35.70;18.40;;;;;;;-0.29;97.07;100618.23;1827416;78;21001;-74
2020/12/18 08:52:30;;;;;;;80.40;47.08;;;;;;;-0.26;97.05;100621.84;1827345;78;21100;-71
2020/12/18 08:55:06;;;;;;;81.02;48.10;;;;;;;-0.26;96.99;100619.66;1827306;78;21365;-73
2020/12/18 08:57:39;;;;;;;48.87;27.60;;;;;;;-0.25;96.93;100617.27;1827207;78;21124;-77
2020/12/18 09:00:18;;;;;;;81.28;45.23;;;;;;;-0.22;97.10;100606.86;1827437;78;20899;-71
2020/12/18 09:02:55;;;;;;;67.22;38.88;;;;;;;-0.22;96.93;100606.86;1827268;78;21001;-70
2020/12/18 09:05:31;;;;;;;52.05;28.23;;;;;;;-0.21;97.01;100606.34;1827328;78;20954;-74
2020/12/18 09:08:05;;;;;;;43.70;25.17;;;;;;;-0.19;97.15;100598.33;1837999;76;21368;-73
2020/12/18 09:10:43;;;;;;;91.30;51.08;;;;;;;-0.13;97.27;100607.42;1833749;77;20951;-70
2020/12/18 09:13:26;;;;;;;57.45;31.45;;;;;;;-0.10;97.33;100598.36;1827308;78;20896;-73
2020/12/18 09:16:02;;;;;;;70.47;41.30;;;;;;;-0.06;97.23;100591.48;1827439;78;21604;-75
2020/12/18 09:18:34;;;;;;;89.13;52.30;;;;;;;-0.02;97.24;100585.94;1827279;78;20939;-69
2020/12/18 09:21:16;;;;;;;71.90;43.17;;;;;;;-0.04;96.67;100583.98;1827393;78;21430;-70
2020/12/18 09:26:28;;;;;;;74.03;45.33;;;;;;;0.07;97.06;100584.28;1873754;76;22682;-72
2020/12/18 09:28:57;;;;;;;80.15;47.50;;;;;;;0.09;97.02;100586.23;1841791;78;20999;-72
2020/12/18 09:31:25;;;;;;;67.22;40.23;;;;;;;0.11;96.79;100582.78;1841669;78;21394;-71
2020/12/18 09:33:52;;;;;;;69.58;39.88;;;;;;;0.10;96.46;100583.84;1841593;78;20940;-72
2020/12/18 09:36:22;;;;;;;62.62;35.65;;;;;;;0.10;96.56;100577.09;1808627;78;20921;-71
2020/12/18 09:38:53;;;;;;;72.00;37.20;;;;;;;0.07;96.34;100575.66;1808603;79;20976;-70
2020/12/18 09:41:22;;;;;;;75.62;41.73;;;;;;;0.06;96.32;100574.53;1808991;78;21542;-72
2020/12/18 09:43:50;;;;;;;55.63;30.12;;;;;;;0.06;96.37;100577.23;1808637;78;21187;-72
2020/12/18 09:46:21;;;;;;;51.92;28.98;;;;;;;0.05;96.33;100579.10;1808548;78;20999;-73
2020/12/18 09:48:48;;;;;;;63.02;37.40;;;;;;;0.06;96.28;100577.23;1808620;79;21003;-71
2020/12/18 09:51:16;;;;;;;57.83;33.33;;;;;;;0.08;96.45;100579.19;1808671;78;21487;-73
2020/12/18 09:53:45;;;;;;;64.35;37.00;;;;;;;0.09;96.43;100576.27;1808589;79;20924;-70
2020/12/18 09:56:14;;;;;;;62.73;37.83;;;;;;;0.08;96.16;100577.31;1808626;78;21201;-71
2020/12/18 09:58:43;;;;;;;70.97;39.65;;;;;;;0.05;96.11;100568.83;1808652;79;21507;-77
2020/12/18 10:01:15;;;;;;;59.00;30.37;;;;;;;0.04;96.22;100579.32;1808875;79;21078;-74
2020/12/18 10:03:44;;;;;;;57.33;29.48;;;;;;;0.04;96.27;100577.45;1780928;79;20936;-77
2020/12/18 10:06:12;;;;;;;70.87;35.52;;;;;;;0.04;96.36;100577.45;1808664;79;21467;-76
2020/12/18 10:08:40;;;;;;;49.27;23.50;;;;;;;0.04;96.28;100573.92;1808099;78;21257;-73
2020/12/18 10:11:07;;;;;;;52.75;23.20;;;;;;;0.06;96.44;100577.23;1800989;78;21181;-74
2020/12/18 10:13:35;;;;;;;37.25;19.20;;;;;;;0.08;96.41;100573.26;1801570;79;21142;-76
2020/12/18 10:16:02;;;;;;;45.65;20.45;;;;;;;0.11;96.41;100571.46;1776695;80;20896;-75
2020/12/18 10:18:32;;;;;;;56.77;23.02;;;;;;;0.09;96.18;100572.20;1776743;80;21109;-75
2020/12/18 10:21:03;;;;;;;68.60;30.80;;;;;;;0.09;96.14;100570.03;1776776;80;21424;-74
2020/12/18 10:23:30;;;;;;;69.25;29.95;;;;;;;0.08;96.09;100567.86;1776630;80;20983;-74
2020/12/18 10:25:58;;;;;;;101.92;44.33;;;;;;;0.05;95.85;100563.42;1771112;79;21022;-74
2020/12/18 10:28:26;;;;;;;189.47;90.42;;;;;;;0.00;95.74;100570.31;1769101;81;21517;-74
2020/12/18 10:30:54;;;;;;;137.80;73.15;;;;;;;-0.03;95.88;100564.04;1768419;81;21494;-74
2020/12/18 10:33:27;;;;;;;120.37;50.70;;;;;;;-0.03;95.98;100563.22;1763332;78;20949;-73
2020/12/18 10:35:55;;;;;;;98.78;41.98;;;;;;;-0.04;95.99;100566.96;1790094;80;21500;-74
2020/12/18 10:38:24;;;;;;;72.82;32.83;;;;;;;-0.06;96.04;100560.95;1795567;80;21052;-73
2020/12/18 10:40:53;;;;;;;72.90;28.23;;;;;;;-0.04;96.21;100556.16;1795586;80;20937;-72
2020/12/18 10:43:21;;;;;;;96.95;41.63;;;;;;;-0.04;96.24;100556.98;1793007;80;21013;-72
2020/12/18 10:45:49;;;;;;;84.42;31.37;;;;;;;-0.03;96.30;100554.59;1790365;80;21539;-73
2020/12/18 10:48:17;;;;;;;82.57;28.12;;;;;;;-0.02;96.35;100552.72;1788347;80;21643;-73
2020/12/18 10:50:45;;;;;;;88.87;37.75;;;;;;;0.02;96.55;100547.15;1788309;80;21457;-75
2020/12/18 10:53:13;;;;;;;65.00;25.27;;;;;;;0.08;96.76;100545.43;1788346;80;20933;-73
2020/12/18 10:55:41;;;;;;;68.15;24.87;;;;;;;0.11;96.67;100548.52;1788514;80;21128;-73
2020/12/18 10:58:09;;;;;;;72.25;28.17;;;;;;;0.12;96.51;100539.89;1788344;80;23454;-73
2020/12/18 11:00:36;;;;;;;86.72;28.95;;;;;;;0.09;96.34;100538.46;1788167;80;20941;-73
2020/12/18 11:03:04;;;;;;;62.23;25.23;;;;;;;0.07;96.29;100537.03;1788788;80;21584;-74
2020/12/18 11:05:32;;;;;;;79.37;27.77;;;;;;;0.05;96.34;100537.25;1791621;80;21013;-74
2020/12/18 11:08:01;;;;;;;85.55;26.33;;;;;;;0.03;96.29;100532.60;1764403;80;21013;-74
2020/12/18 11:10:28;;;;;;;73.75;24.67;;;;;;;-0.01;96.34;100533.60;1788212;80;21363;-74
2020/12/18 11:12:55;;;;;;;73.07;24.82;;;;;;;-0.04;96.43;100536.74;1788178;80;21484;-74
2020/12/18 11:15:23;;;;;;;84.13;23.42;;;;;;;-0.05;96.58;100535.61;1788290;80;20919;-74
2020/12/18 11:17:52;;;;;;;92.75;26.97;;;;;;;-0.04;96.70;100534.57;1788260;80;20985;-73
2020/12/18 11:20:19;;;;;;;96.95;28.42;;;;;;;-0.02;97.05;100532.47;1788381;80;21575;-77
2020/12/18 11:22:47;;;;;;;61.70;26.17;;;;;;;0.00;97.03;100533.88;1788298;80;22715;-74
2020/12/18 11:25:14;;;;;;;111.20;29.42;;;;;;;0.00;97.00;100525.77;1788268;80;21488;-75
2020/12/18 11:27:42;;;;;;;91.10;26.20;;;;;;;0.00;96.93;100529.03;1788240;80;20986;-75
2020/12/18 11:30:10;;;;;;;91.53;28.17;;;;;;;-0.02;96.99;100525.20;1788245;80;21001;-76
2020/12/18 11:32:38;;;;;;;59.35;25.15;;;;;;;-0.03;97.08;100531.65;1785432;79;21619;-73
2020/12/18 11:35:06;;;;;;;76.75;29.45;;;;;;;-0.01;97.22;100529.55;1788219;80;21133;-74
2020/12/18 11:37:34;;;;;;;70.60;27.37;;;;;;;-0.02;97.11;100530.59;1788171;80;21037;-74